SPYUO LOWI-EGLC
Flight info
| Callsign | SPYUO |
|---|---|
| Flight time | 1h 51m |
| Altitude | 28000 |
| Route | KPT5J KPT L856 AKABI/N0312F290 L856 HOC/N0310F280 DCT LUL DCT RLP DCT ROTSI DCT KOTUN DCT NURMO DCT VESAN DCT RATUK L613 SOVAT SOVAT1C |
| Aircraft | TBM9/L-SDFGRWY/S |
Departure
| Time | 2026-05-06 18:13 |
|---|---|
| Airport | Innsbruck Airport (LOWI) |
Arrival
| Time | 2026-05-06 20:05 |
|---|---|
| Airport | London City Airport (EGLC) |
| Time | Latitude | Longitude | Altitude | Speed | Heading |
|---|---|---|---|---|---|
| 2026-05-06 17:36 | 47.25886 | 11.35363 | 1897 ft | 0 kts | 261° |
| 2026-05-06 17:53 | 47.25886 | 11.35345 | 1897 ft | 7 kts | 282° |
| 2026-05-06 17:53 | 47.25930 | 11.35295 | 1902 ft | 6 kts | 342° |
| 2026-05-06 17:53 | 47.25966 | 11.35279 | 1894 ft | 6 kts | 352° |
| 2026-05-06 17:54 | 47.25970 | 11.35279 | 1896 ft | 0 kts | 354° |
| 2026-05-06 17:55 | 47.26030 | 11.35267 | 1897 ft | 9 kts | 354° |
| 2026-05-06 17:55 | 47.26089 | 11.35267 | 1901 ft | 12 kts | 44° |
| 2026-05-06 17:55 | 47.26124 | 11.35442 | 1901 ft | 20 kts | 72° |
| 2026-05-06 17:55 | 47.26132 | 11.35534 | 1901 ft | 0 kts | 22° |
| 2026-05-06 17:56 | 47.26138 | 11.35497 | 1901 ft | 18 kts | 255° |
| 2026-05-06 17:56 | 47.26068 | 11.34995 | 1902 ft | 81 kts | 257° |
| 2026-05-06 17:56 | 47.25973 | 11.34107 | 1902 ft | 67 kts | 266° |
| 2026-05-06 17:56 | 47.25935 | 11.33757 | 1899 ft | 5 kts | 244° |
| 2026-05-06 17:57 | 47.25914 | 11.33728 | 1899 ft | 15 kts | 191° |
| 2026-05-06 17:57 | 47.25857 | 11.33781 | 1902 ft | 1 kts | 123° |
| 2026-05-06 17:57 | 47.25859 | 11.33777 | 1902 ft | 1 kts | 122° |
| 2026-05-06 17:57 | 47.25832 | 11.33838 | 1902 ft | 0 kts | 117° |
| 2026-05-06 17:58 | 47.25814 | 11.33879 | 1898 ft | 10 kts | 123° |
| 2026-05-06 17:59 | 47.25786 | 11.33950 | 1902 ft | 6 kts | 114° |
| 2026-05-06 17:59 | 47.25769 | 11.34026 | 1902 ft | 9 kts | 86° |
| 2026-05-06 17:59 | 47.25776 | 11.34138 | 1902 ft | 12 kts | 74° |
| 2026-05-06 17:59 | 47.25792 | 11.34273 | 1902 ft | 15 kts | 84° |
| 2026-05-06 18:00 | 47.25804 | 11.34435 | 1902 ft | 16 kts | 79° |
| 2026-05-06 18:00 | 47.25828 | 11.34611 | 1902 ft | 19 kts | 84° |
| 2026-05-06 18:00 | 47.25849 | 11.34807 | 1902 ft | 20 kts | 86° |
| 2026-05-06 18:00 | 47.25865 | 11.34955 | 1891 ft | 12 kts | 79° |
| 2026-05-06 18:01 | 47.25869 | 11.34980 | 1898 ft | 0 kts | 76° |
| 2026-05-06 18:02 | 47.25874 | 11.35010 | 1920 ft | 10 kts | 77° |
| 2026-05-06 18:03 | 47.25880 | 11.35057 | 1896 ft | 0 kts | 81° |
| 2026-05-06 18:03 | 47.25884 | 11.35099 | 1902 ft | 12 kts | 83° |
| 2026-05-06 18:03 | 47.25886 | 11.35123 | 1902 ft | 0 kts | 81° |
| 2026-05-06 18:03 | 47.25890 | 11.35151 | 1902 ft | 1 kts | 81° |
| 2026-05-06 18:04 | 47.25894 | 11.35212 | 1896 ft | 7 kts | 87° |
| 2026-05-06 18:04 | 47.25894 | 11.35222 | 1899 ft | 0 kts | 85° |
| 2026-05-06 18:04 | 47.25921 | 11.35286 | 1900 ft | 0 kts | 354° |
| 2026-05-06 18:05 | 47.25927 | 11.35285 | 1902 ft | 5 kts | 357° |
| 2026-05-06 18:05 | 47.25970 | 11.35278 | 1896 ft | 0 kts | 353° |
| 2026-05-06 18:05 | 47.25972 | 11.35278 | 1897 ft | 0 kts | 353° |
| 2026-05-06 18:07 | 47.25974 | 11.35277 | 1898 ft | 0 kts | 352° |
| 2026-05-06 18:08 | 47.26010 | 11.35268 | 1895 ft | 15 kts | 352° |
| 2026-05-06 18:08 | 47.26101 | 11.35261 | 1902 ft | 13 kts | 26° |
| 2026-05-06 18:09 | 47.26122 | 11.35328 | 1901 ft | 0 kts | 79° |
| 2026-05-06 18:09 | 47.26129 | 11.35412 | 1901 ft | 25 kts | 90° |
| 2026-05-06 18:09 | 47.26145 | 11.35584 | 1901 ft | 6 kts | 249° |
| 2026-05-06 18:09 | 47.26144 | 11.35578 | 1901 ft | 0 kts | 260° |
| 2026-05-06 18:13 | 47.26124 | 11.35472 | 1891 ft | 39 kts | 256° |
| 2026-05-06 18:13 | 47.26044 | 11.34750 | 1901 ft | 102 kts | 260° |
| 2026-05-06 18:13 | 47.25970 | 11.33532 | 2175 ft | 129 kts | 255° |
| 2026-05-06 18:13 | 47.25896 | 11.32194 | 2704 ft | 132 kts | 260° |
| 2026-05-06 18:14 | 47.25722 | 11.30868 | 3191 ft | 137 kts | 255° |
| 2026-05-06 18:14 | 47.25527 | 11.29467 | 3681 ft | 142 kts | 260° |
| 2026-05-06 18:14 | 47.25367 | 11.28011 | 4166 ft | 146 kts | 259° |
| 2026-05-06 18:14 | 47.25360 | 11.26516 | 4650 ft | 149 kts | 284° |
| 2026-05-06 18:15 | 47.25770 | 11.25104 | 5167 ft | 152 kts | 292° |
| 2026-05-06 18:15 | 47.26182 | 11.23652 | 5690 ft | 155 kts | 290° |
| 2026-05-06 18:15 | 47.26609 | 11.22186 | 6208 ft | 156 kts | 295° |
| 2026-05-06 18:15 | 47.27048 | 11.20716 | 6695 ft | 157 kts | 294° |
| 2026-05-06 18:16 | 47.27481 | 11.19225 | 7166 ft | 160 kts | 291° |
| 2026-05-06 18:16 | 47.27926 | 11.17684 | 7648 ft | 167 kts | 291° |
| 2026-05-06 18:16 | 47.28399 | 11.16085 | 8140 ft | 173 kts | 291° |
| 2026-05-06 18:16 | 47.28868 | 11.14430 | 8653 ft | 177 kts | 288° |
| 2026-05-06 18:17 | 47.29358 | 11.12744 | 9171 ft | 181 kts | 289° |
| 2026-05-06 18:17 | 47.29878 | 11.11040 | 9696 ft | 184 kts | 290° |
| 2026-05-06 18:17 | 47.30369 | 11.09290 | 10177 ft | 185 kts | 284° |
| 2026-05-06 18:17 | 47.30539 | 11.07441 | 10658 ft | 182 kts | 263° |
| 2026-05-06 18:18 | 47.30457 | 11.05574 | 11171 ft | 183 kts | 262° |
| 2026-05-06 18:18 | 47.30393 | 11.03699 | 11664 ft | 183 kts | 263° |
| 2026-05-06 18:18 | 47.30656 | 11.01886 | 12180 ft | 191 kts | 294° |
| 2026-05-06 18:18 | 47.31547 | 11.00392 | 12712 ft | 197 kts | 309° |
| 2026-05-06 18:19 | 47.32521 | 10.98976 | 13251 ft | 197 kts | 307° |
| 2026-05-06 18:19 | 47.33489 | 10.97524 | 13773 ft | 199 kts | 307° |
| 2026-05-06 18:19 | 47.34469 | 10.96054 | 14257 ft | 203 kts | 307° |
| 2026-05-06 18:19 | 47.35457 | 10.94555 | 14736 ft | 203 kts | 307° |
| 2026-05-06 18:20 | 47.36451 | 10.93064 | 15213 ft | 202 kts | 308° |
| 2026-05-06 18:20 | 47.37429 | 10.91617 | 15706 ft | 198 kts | 307° |
| 2026-05-06 18:20 | 47.38422 | 10.90092 | 15823 ft | 217 kts | 307° |
| 2026-05-06 18:20 | 47.39525 | 10.88405 | 15830 ft | 237 kts | 309° |
| 2026-05-06 18:21 | 47.40720 | 10.86628 | 15864 ft | 251 kts | 310° |
| 2026-05-06 18:21 | 47.41978 | 10.84742 | 15849 ft | 264 kts | 310° |
| 2026-05-06 18:21 | 47.43289 | 10.82773 | 15852 ft | 273 kts | 310° |
| 2026-05-06 18:21 | 47.44635 | 10.80743 | 15843 ft | 278 kts | 310° |
| 2026-05-06 18:22 | 47.45950 | 10.78759 | 16208 ft | 263 kts | 310° |
| 2026-05-06 18:22 | 47.47206 | 10.76841 | 16639 ft | 255 kts | 309° |
| 2026-05-06 18:22 | 47.48410 | 10.74998 | 17085 ft | 244 kts | 309° |
| 2026-05-06 18:22 | 47.49584 | 10.73212 | 17547 ft | 242 kts | 309° |
| 2026-05-06 18:23 | 47.50757 | 10.71438 | 17999 ft | 240 kts | 309° |
| 2026-05-06 18:23 | 47.51918 | 10.69674 | 18418 ft | 238 kts | 309° |
| 2026-05-06 18:23 | 47.53072 | 10.67917 | 18814 ft | 238 kts | 309° |
| 2026-05-06 18:23 | 47.54222 | 10.66167 | 19217 ft | 237 kts | 309° |
| 2026-05-06 18:24 | 47.55354 | 10.64443 | 19623 ft | 236 kts | 309° |
| 2026-05-06 18:24 | 47.56500 | 10.62697 | 20042 ft | 236 kts | 308° |
| 2026-05-06 18:24 | 47.57641 | 10.60957 | 20468 ft | 235 kts | 308° |
| 2026-05-06 18:24 | 47.58780 | 10.59220 | 20904 ft | 235 kts | 308° |
| 2026-05-06 18:25 | 47.59918 | 10.57483 | 21341 ft | 235 kts | 308° |
| 2026-05-06 18:25 | 47.61055 | 10.55746 | 21784 ft | 235 kts | 307° |
| 2026-05-06 18:25 | 47.62191 | 10.54009 | 22233 ft | 235 kts | 307° |
| 2026-05-06 18:25 | 47.63325 | 10.52274 | 22719 ft | 234 kts | 306° |
| 2026-05-06 18:26 | 47.64461 | 10.50534 | 23184 ft | 234 kts | 306° |
| 2026-05-06 18:26 | 47.65596 | 10.48795 | 23620 ft | 234 kts | 306° |
| 2026-05-06 18:26 | 47.66713 | 10.47084 | 24005 ft | 234 kts | 306° |
| 2026-05-06 18:26 | 47.67844 | 10.45349 | 24411 ft | 233 kts | 305° |
| 2026-05-06 18:27 | 47.68972 | 10.43618 | 24818 ft | 233 kts | 304° |
| 2026-05-06 18:27 | 47.70095 | 10.41893 | 25229 ft | 233 kts | 304° |
| 2026-05-06 18:27 | 47.71221 | 10.40165 | 25645 ft | 232 kts | 304° |
| 2026-05-06 18:27 | 47.72339 | 10.38434 | 26067 ft | 230 kts | 302° |
| 2026-05-06 18:28 | 47.73264 | 10.36558 | 26485 ft | 221 kts | 290° |
| 2026-05-06 18:28 | 47.73920 | 10.34545 | 26915 ft | 213 kts | 280° |
| 2026-05-06 18:28 | 47.74318 | 10.32466 | 27353 ft | 206 kts | 271° |
| 2026-05-06 18:28 | 47.74472 | 10.30388 | 27795 ft | 199 kts | 262° |
| 2026-05-06 18:29 | 47.74433 | 10.28277 | 27891 ft | 212 kts | 259° |
| 2026-05-06 18:29 | 47.74380 | 10.26005 | 27904 ft | 227 kts | 261° |
| 2026-05-06 18:29 | 47.74334 | 10.23600 | 27904 ft | 239 kts | 261° |
| 2026-05-06 18:29 | 47.74281 | 10.21075 | 27904 ft | 248 kts | 261° |
| 2026-05-06 18:30 | 47.74222 | 10.18469 | 27907 ft | 256 kts | 261° |
| 2026-05-06 18:30 | 47.74159 | 10.15792 | 27903 ft | 262 kts | 262° |
| 2026-05-06 18:30 | 47.74099 | 10.13098 | 27910 ft | 267 kts | 261° |
| 2026-05-06 18:30 | 47.74034 | 10.10322 | 27903 ft | 271 kts | 261° |
| 2026-05-06 18:31 | 47.73968 | 10.07508 | 27903 ft | 274 kts | 261° |
| 2026-05-06 18:31 | 47.73901 | 10.04667 | 27905 ft | 276 kts | 262° |
| 2026-05-06 18:31 | 47.73831 | 10.01802 | 27904 ft | 278 kts | 261° |
| 2026-05-06 18:31 | 47.73761 | 9.98931 | 27907 ft | 279 kts | 262° |
| 2026-05-06 18:32 | 47.73689 | 9.96042 | 27905 ft | 280 kts | 262° |
| 2026-05-06 18:32 | 47.73617 | 9.93146 | 27905 ft | 281 kts | 262° |
| 2026-05-06 18:32 | 47.73545 | 9.90243 | 27905 ft | 281 kts | 261° |
| 2026-05-06 18:32 | 47.73471 | 9.87334 | 27907 ft | 282 kts | 262° |
| 2026-05-06 18:33 | 47.73397 | 9.84423 | 27907 ft | 282 kts | 261° |
| 2026-05-06 18:33 | 47.73321 | 9.81506 | 27908 ft | 283 kts | 261° |
| 2026-05-06 18:33 | 47.73245 | 9.78584 | 27906 ft | 283 kts | 261° |
| 2026-05-06 18:33 | 47.73168 | 9.75669 | 27907 ft | 283 kts | 261° |
| 2026-05-06 18:34 | 47.73091 | 9.72747 | 27906 ft | 283 kts | 261° |
| 2026-05-06 18:34 | 47.73011 | 9.69823 | 27918 ft | 284 kts | 261° |
| 2026-05-06 18:34 | 47.72931 | 9.66887 | 27915 ft | 285 kts | 261° |
| 2026-05-06 18:34 | 47.72852 | 9.63950 | 27914 ft | 285 kts | 261° |
| 2026-05-06 18:35 | 47.72769 | 9.61008 | 27912 ft | 285 kts | 261° |
| 2026-05-06 18:35 | 47.72691 | 9.58064 | 27910 ft | 285 kts | 262° |
| 2026-05-06 18:35 | 47.72631 | 9.55120 | 27908 ft | 285 kts | 261° |
| 2026-05-06 18:35 | 47.72544 | 9.52175 | 27911 ft | 287 kts | 264° |
| 2026-05-06 18:36 | 47.72713 | 9.49201 | 27921 ft | 292 kts | 271° |
| 2026-05-06 18:36 | 47.73156 | 9.46231 | 27920 ft | 298 kts | 278° |
| 2026-05-06 18:36 | 47.73887 | 9.43311 | 27919 ft | 304 kts | 286° |
| 2026-05-06 18:36 | 47.74859 | 9.40502 | 27919 ft | 307 kts | 290° |
| 2026-05-06 18:37 | 47.75850 | 9.37679 | 27916 ft | 309 kts | 289° |
| 2026-05-06 18:37 | 47.76844 | 9.34845 | 27902 ft | 310 kts | 290° |
| 2026-05-06 18:37 | 47.77858 | 9.31997 | 27903 ft | 312 kts | 290° |
| 2026-05-06 18:37 | 47.78873 | 9.29140 | 27907 ft | 314 kts | 290° |
| 2026-05-06 18:38 | 47.79891 | 9.26253 | 27894 ft | 316 kts | 290° |
| 2026-05-06 18:38 | 47.80913 | 9.23356 | 27889 ft | 317 kts | 290° |
| 2026-05-06 18:38 | 47.81940 | 9.20449 | 27895 ft | 317 kts | 290° |
| 2026-05-06 18:38 | 47.82966 | 9.17539 | 27896 ft | 318 kts | 290° |
| 2026-05-06 18:39 | 47.83996 | 9.14612 | 27894 ft | 319 kts | 290° |
| 2026-05-06 18:39 | 47.85026 | 9.11683 | 27893 ft | 320 kts | 290° |
| 2026-05-06 18:39 | 47.86057 | 9.08748 | 27892 ft | 320 kts | 290° |
| 2026-05-06 18:40 | 47.88104 | 9.02909 | 27885 ft | 321 kts | 291° |
| 2026-05-06 18:40 | 47.89135 | 8.99962 | 27883 ft | 321 kts | 291° |
| 2026-05-06 18:40 | 47.90168 | 8.97009 | 27883 ft | 321 kts | 291° |
| 2026-05-06 18:40 | 47.91200 | 8.94051 | 27889 ft | 322 kts | 291° |
| 2026-05-06 18:41 | 47.92235 | 8.91088 | 27909 ft | 323 kts | 292° |
| 2026-05-06 18:41 | 47.93273 | 8.88108 | 27901 ft | 324 kts | 293° |
| 2026-05-06 18:41 | 47.94312 | 8.85123 | 27899 ft | 324 kts | 293° |
| 2026-05-06 18:41 | 47.95349 | 8.82138 | 27903 ft | 324 kts | 293° |
| 2026-05-06 18:42 | 47.96388 | 8.79146 | 27904 ft | 324 kts | 293° |
| 2026-05-06 18:42 | 47.97425 | 8.76158 | 27901 ft | 324 kts | 292° |
| 2026-05-06 18:42 | 47.98461 | 8.73166 | 27896 ft | 324 kts | 292° |
| 2026-05-06 18:42 | 47.99494 | 8.70180 | 27893 ft | 324 kts | 292° |
| 2026-05-06 18:43 | 48.00530 | 8.67186 | 27889 ft | 324 kts | 293° |
| 2026-05-06 18:43 | 48.01562 | 8.64195 | 27888 ft | 324 kts | 292° |
| 2026-05-06 18:43 | 48.02594 | 8.61204 | 27886 ft | 324 kts | 292° |
| 2026-05-06 18:43 | 48.03611 | 8.58251 | 27885 ft | 324 kts | 292° |
| 2026-05-06 18:44 | 48.04640 | 8.55257 | 27886 ft | 323 kts | 292° |
| 2026-05-06 18:44 | 48.05668 | 8.52266 | 27909 ft | 323 kts | 294° |
| 2026-05-06 18:44 | 48.06695 | 8.49269 | 27904 ft | 325 kts | 294° |
| 2026-05-06 18:44 | 48.07729 | 8.46256 | 27903 ft | 326 kts | 294° |
| 2026-05-06 18:45 | 48.08765 | 8.43235 | 27894 ft | 327 kts | 294° |
| 2026-05-06 18:45 | 48.09801 | 8.40207 | 27893 ft | 327 kts | 295° |
| 2026-05-06 18:45 | 48.10841 | 8.37170 | 27892 ft | 327 kts | 295° |
| 2026-05-06 18:45 | 48.11522 | 8.35161 | 27893 ft | 327 kts | 295° |
| 2026-05-06 18:46 | 48.12905 | 8.31105 | 27892 ft | 327 kts | 295° |
| 2026-05-06 18:46 | 48.13941 | 8.28069 | 27887 ft | 328 kts | 294° |
| 2026-05-06 18:46 | 48.14973 | 8.25021 | 27887 ft | 328 kts | 295° |
| 2026-05-06 18:46 | 48.16010 | 8.21979 | 27885 ft | 328 kts | 295° |
| 2026-05-06 18:47 | 48.17046 | 8.18929 | 27886 ft | 328 kts | 296° |
| 2026-05-06 18:47 | 48.18077 | 8.15884 | 27886 ft | 328 kts | 295° |
| 2026-05-06 18:47 | 48.19105 | 8.12840 | 27882 ft | 328 kts | 295° |
| 2026-05-06 18:47 | 48.20137 | 8.09789 | 27880 ft | 328 kts | 295° |
| 2026-05-06 18:48 | 48.21166 | 8.06741 | 27880 ft | 328 kts | 296° |
| 2026-05-06 18:48 | 48.22196 | 8.03690 | 27877 ft | 328 kts | 296° |
| 2026-05-06 18:48 | 48.23222 | 8.00641 | 27878 ft | 328 kts | 295° |
| 2026-05-06 18:48 | 48.24251 | 7.97581 | 27877 ft | 328 kts | 295° |
| 2026-05-06 18:49 | 48.25279 | 7.94525 | 27875 ft | 328 kts | 295° |
| 2026-05-06 18:49 | 48.26305 | 7.91469 | 27876 ft | 328 kts | 295° |
| 2026-05-06 18:49 | 48.27317 | 7.88449 | 27876 ft | 328 kts | 295° |
| 2026-05-06 18:49 | 48.28354 | 7.85351 | 27875 ft | 328 kts | 295° |
| 2026-05-06 18:50 | 48.29379 | 7.82288 | 27875 ft | 328 kts | 295° |
| 2026-05-06 18:50 | 48.30389 | 7.79263 | 27875 ft | 328 kts | 295° |
| 2026-05-06 18:50 | 48.31411 | 7.76199 | 27874 ft | 328 kts | 295° |
| 2026-05-06 18:50 | 48.32436 | 7.73126 | 27888 ft | 328 kts | 296° |
| 2026-05-06 18:51 | 48.33460 | 7.70046 | 27884 ft | 329 kts | 296° |
| 2026-05-06 18:51 | 48.34485 | 7.66963 | 27882 ft | 330 kts | 296° |
| 2026-05-06 18:51 | 48.35513 | 7.63871 | 27879 ft | 331 kts | 296° |
| 2026-05-06 18:51 | 48.36540 | 7.60772 | 27876 ft | 331 kts | 296° |
| 2026-05-06 18:52 | 48.37568 | 7.57667 | 27879 ft | 332 kts | 296° |
| 2026-05-06 18:52 | 48.38599 | 7.54554 | 27875 ft | 333 kts | 296° |
| 2026-05-06 18:52 | 48.39629 | 7.51436 | 27873 ft | 333 kts | 296° |
| 2026-05-06 18:52 | 48.40660 | 7.48314 | 27873 ft | 333 kts | 296° |
| 2026-05-06 18:53 | 48.41688 | 7.45196 | 27871 ft | 331 kts | 296° |
| 2026-05-06 18:53 | 48.42696 | 7.42133 | 27873 ft | 331 kts | 296° |
| 2026-05-06 18:53 | 48.43718 | 7.39022 | 27872 ft | 332 kts | 296° |
| 2026-05-06 18:53 | 48.44738 | 7.35918 | 27873 ft | 330 kts | 296° |
| 2026-05-06 18:54 | 48.45755 | 7.32819 | 27872 ft | 330 kts | 297° |
| 2026-05-06 18:54 | 48.46770 | 7.29718 | 27873 ft | 331 kts | 297° |
| 2026-05-06 18:54 | 48.47789 | 7.26604 | 27874 ft | 332 kts | 297° |
| 2026-05-06 18:54 | 48.48813 | 7.23472 | 27877 ft | 333 kts | 297° |
| 2026-05-06 18:55 | 48.49841 | 7.20324 | 27877 ft | 334 kts | 297° |
| 2026-05-06 18:55 | 48.50866 | 7.17183 | 27878 ft | 332 kts | 297° |
| 2026-05-06 18:55 | 48.51884 | 7.14054 | 27871 ft | 332 kts | 297° |
| 2026-05-06 18:55 | 48.52901 | 7.10923 | 27873 ft | 333 kts | 297° |
| 2026-05-06 18:56 | 48.53917 | 7.07796 | 27875 ft | 333 kts | 297° |
| 2026-05-06 18:56 | 48.54924 | 7.04699 | 27873 ft | 333 kts | 297° |
| 2026-05-06 18:56 | 48.55939 | 7.01562 | 27876 ft | 333 kts | 297° |
| 2026-05-06 18:56 | 48.56967 | 6.98384 | 27873 ft | 332 kts | 297° |
| 2026-05-06 18:57 | 48.57965 | 6.95298 | 27874 ft | 332 kts | 297° |
| 2026-05-06 18:57 | 48.58976 | 6.92165 | 27883 ft | 332 kts | 297° |
| 2026-05-06 18:57 | 48.59985 | 6.89036 | 27881 ft | 332 kts | 297° |
| 2026-05-06 18:57 | 48.60995 | 6.85896 | 27877 ft | 332 kts | 297° |
| 2026-05-06 18:58 | 48.62003 | 6.82760 | 27876 ft | 332 kts | 297° |
| 2026-05-06 18:58 | 48.62671 | 6.80684 | 27872 ft | 332 kts | 297° |
| 2026-05-06 18:58 | 48.64015 | 6.76495 | 27872 ft | 331 kts | 296° |
| 2026-05-06 18:58 | 48.64680 | 6.74420 | 27873 ft | 331 kts | 296° |
| 2026-05-06 18:59 | 48.65685 | 6.71282 | 27877 ft | 331 kts | 296° |
| 2026-05-06 18:59 | 48.66688 | 6.68144 | 27872 ft | 331 kts | 296° |
| 2026-05-06 18:59 | 48.67692 | 6.65001 | 27872 ft | 332 kts | 296° |
| 2026-05-06 18:59 | 48.68694 | 6.61859 | 27878 ft | 331 kts | 296° |
| 2026-05-06 19:00 | 48.69693 | 6.58721 | 27882 ft | 331 kts | 297° |
| 2026-05-06 19:00 | 48.70695 | 6.55573 | 27878 ft | 332 kts | 296° |
| 2026-05-06 19:00 | 48.71695 | 6.52425 | 27877 ft | 331 kts | 297° |
| 2026-05-06 19:00 | 48.72693 | 6.49281 | 27876 ft | 331 kts | 297° |
| 2026-05-06 19:01 | 48.73686 | 6.46151 | 27880 ft | 329 kts | 297° |
| 2026-05-06 19:01 | 48.74676 | 6.43021 | 27874 ft | 329 kts | 296° |
| 2026-05-06 19:01 | 48.75664 | 6.39897 | 27877 ft | 329 kts | 296° |
| 2026-05-06 19:01 | 48.76651 | 6.36769 | 27875 ft | 329 kts | 296° |
| 2026-05-06 19:02 | 48.77637 | 6.33643 | 27873 ft | 329 kts | 296° |
| 2026-05-06 19:02 | 48.78625 | 6.30512 | 27874 ft | 329 kts | 297° |
| 2026-05-06 19:02 | 48.79610 | 6.27383 | 27878 ft | 329 kts | 296° |
| 2026-05-06 19:02 | 48.80595 | 6.24242 | 27874 ft | 329 kts | 296° |
| 2026-05-06 19:03 | 48.81580 | 6.21105 | 27874 ft | 329 kts | 296° |
| 2026-05-06 19:03 | 48.82554 | 6.17999 | 27875 ft | 329 kts | 296° |
| 2026-05-06 19:03 | 48.83534 | 6.14865 | 27874 ft | 329 kts | 296° |
| 2026-05-06 19:03 | 48.84470 | 6.11868 | 27922 ft | 305 kts | 296° |
| 2026-05-06 19:04 | 48.85267 | 6.09275 | 27864 ft | 269 kts | 296° |
| 2026-05-06 19:04 | 48.86087 | 6.06641 | 27874 ft | 282 kts | 297° |
| 2026-05-06 19:04 | 48.86951 | 6.03902 | 27877 ft | 293 kts | 297° |
| 2026-05-06 19:04 | 48.87841 | 6.01060 | 27877 ft | 301 kts | 296° |
| 2026-05-06 19:05 | 48.88744 | 5.98151 | 27881 ft | 308 kts | 296° |
| 2026-05-06 19:05 | 48.89664 | 5.95183 | 27888 ft | 312 kts | 296° |
| 2026-05-06 19:05 | 48.90595 | 5.92185 | 27893 ft | 316 kts | 296° |
| 2026-05-06 19:05 | 48.91536 | 5.89150 | 27896 ft | 318 kts | 296° |
| 2026-05-06 19:06 | 48.92482 | 5.86093 | 27899 ft | 320 kts | 296° |
| 2026-05-06 19:06 | 48.93433 | 5.83015 | 27900 ft | 322 kts | 296° |
| 2026-05-06 19:06 | 48.94373 | 5.79970 | 27893 ft | 323 kts | 295° |
| 2026-05-06 19:06 | 48.95329 | 5.76867 | 27898 ft | 323 kts | 295° |
| 2026-05-06 19:07 | 48.96286 | 5.73758 | 27899 ft | 324 kts | 295° |
| 2026-05-06 19:07 | 48.97242 | 5.70648 | 27899 ft | 325 kts | 296° |
| 2026-05-06 19:07 | 48.98201 | 5.67528 | 27898 ft | 326 kts | 296° |
| 2026-05-06 19:07 | 48.99160 | 5.64401 | 27898 ft | 326 kts | 296° |
| 2026-05-06 19:08 | 49.00118 | 5.61276 | 27899 ft | 325 kts | 296° |
| 2026-05-06 19:08 | 49.01072 | 5.58150 | 27898 ft | 326 kts | 296° |
| 2026-05-06 19:08 | 49.02030 | 5.55016 | 27896 ft | 326 kts | 296° |
| 2026-05-06 19:08 | 49.02989 | 5.51876 | 27894 ft | 326 kts | 296° |
| 2026-05-06 19:09 | 49.03946 | 5.48737 | 27896 ft | 326 kts | 296° |
| 2026-05-06 19:09 | 49.04900 | 5.45604 | 27898 ft | 326 kts | 296° |
| 2026-05-06 19:09 | 49.05852 | 5.42470 | 27896 ft | 326 kts | 295° |
| 2026-05-06 19:09 | 49.06802 | 5.39341 | 27896 ft | 326 kts | 295° |
| 2026-05-06 19:10 | 49.07755 | 5.36198 | 27897 ft | 326 kts | 296° |
| 2026-05-06 19:10 | 49.08704 | 5.33064 | 27897 ft | 326 kts | 295° |
| 2026-05-06 19:10 | 49.09657 | 5.29915 | 27896 ft | 326 kts | 295° |
| 2026-05-06 19:10 | 49.10607 | 5.26773 | 27896 ft | 326 kts | 294° |
| 2026-05-06 19:11 | 49.11540 | 5.23677 | 27897 ft | 325 kts | 295° |
| 2026-05-06 19:11 | 49.12483 | 5.20546 | 27897 ft | 325 kts | 295° |
| 2026-05-06 19:11 | 49.13427 | 5.17411 | 27896 ft | 324 kts | 295° |
| 2026-05-06 19:11 | 49.14369 | 5.14275 | 27896 ft | 324 kts | 295° |
| 2026-05-06 19:12 | 49.15307 | 5.11151 | 27899 ft | 324 kts | 295° |
| 2026-05-06 19:12 | 49.16248 | 5.08010 | 27900 ft | 324 kts | 294° |
| 2026-05-06 19:12 | 49.17184 | 5.04884 | 27900 ft | 324 kts | 294° |
| 2026-05-06 19:12 | 49.18121 | 5.01750 | 27898 ft | 324 kts | 294° |
| 2026-05-06 19:13 | 49.19057 | 4.98615 | 27900 ft | 324 kts | 294° |
| 2026-05-06 19:13 | 49.19992 | 4.95480 | 27904 ft | 324 kts | 294° |
| 2026-05-06 19:13 | 49.20927 | 4.92342 | 27905 ft | 324 kts | 294° |
| 2026-05-06 19:13 | 49.21860 | 4.89205 | 27906 ft | 324 kts | 294° |
| 2026-05-06 19:14 | 49.22787 | 4.86083 | 27908 ft | 320 kts | 294° |
| 2026-05-06 19:14 | 49.23707 | 4.82986 | 27907 ft | 319 kts | 294° |
| 2026-05-06 19:14 | 49.24621 | 4.79900 | 27904 ft | 318 kts | 294° |
| 2026-05-06 19:14 | 49.25533 | 4.76816 | 27909 ft | 317 kts | 294° |
| 2026-05-06 19:15 | 49.26443 | 4.73736 | 27907 ft | 317 kts | 294° |
| 2026-05-06 19:15 | 49.27350 | 4.70664 | 27905 ft | 317 kts | 294° |
| 2026-05-06 19:15 | 49.28257 | 4.67588 | 27905 ft | 317 kts | 294° |
| 2026-05-06 19:15 | 49.29160 | 4.64522 | 27905 ft | 316 kts | 294° |
| 2026-05-06 19:16 | 49.30066 | 4.61441 | 27909 ft | 316 kts | 294° |
| 2026-05-06 19:16 | 49.30968 | 4.58370 | 27910 ft | 316 kts | 294° |
| 2026-05-06 19:16 | 49.31870 | 4.55294 | 27911 ft | 316 kts | 294° |
| 2026-05-06 19:16 | 49.32761 | 4.52254 | 27911 ft | 316 kts | 294° |
| 2026-05-06 19:17 | 49.33662 | 4.49173 | 27907 ft | 316 kts | 294° |
| 2026-05-06 19:17 | 49.34561 | 4.46096 | 27909 ft | 316 kts | 294° |
| 2026-05-06 19:17 | 49.35459 | 4.43020 | 27911 ft | 316 kts | 294° |
| 2026-05-06 19:17 | 49.36356 | 4.39943 | 27911 ft | 315 kts | 294° |
| 2026-05-06 19:18 | 49.37250 | 4.36869 | 27916 ft | 315 kts | 293° |
| 2026-05-06 19:18 | 49.38142 | 4.33801 | 27917 ft | 315 kts | 293° |
| 2026-05-06 19:18 | 49.39034 | 4.30728 | 27915 ft | 314 kts | 293° |
| 2026-05-06 19:18 | 49.39923 | 4.27664 | 27915 ft | 314 kts | 293° |
| 2026-05-06 19:19 | 49.40810 | 4.24599 | 27913 ft | 314 kts | 293° |
| 2026-05-06 19:19 | 49.41697 | 4.21535 | 27912 ft | 314 kts | 293° |
| 2026-05-06 19:19 | 49.42582 | 4.18471 | 27913 ft | 314 kts | 293° |
| 2026-05-06 19:19 | 49.43467 | 4.15402 | 27912 ft | 314 kts | 293° |
| 2026-05-06 19:20 | 49.44353 | 4.12330 | 27916 ft | 314 kts | 293° |
| 2026-05-06 19:20 | 49.45236 | 4.09258 | 27916 ft | 314 kts | 293° |
| 2026-05-06 19:20 | 49.46120 | 4.06182 | 27918 ft | 314 kts | 293° |
| 2026-05-06 19:20 | 49.47001 | 4.03116 | 27917 ft | 314 kts | 293° |
| 2026-05-06 19:21 | 49.47870 | 4.00084 | 27913 ft | 314 kts | 293° |
| 2026-05-06 19:21 | 49.48761 | 3.96973 | 27914 ft | 314 kts | 293° |
| 2026-05-06 19:21 | 49.49625 | 3.93948 | 27912 ft | 314 kts | 293° |
| 2026-05-06 19:21 | 49.50503 | 3.90875 | 27918 ft | 314 kts | 293° |
| 2026-05-06 19:22 | 49.51380 | 3.87798 | 27918 ft | 314 kts | 293° |
| 2026-05-06 19:22 | 49.52255 | 3.84727 | 27918 ft | 313 kts | 293° |
| 2026-05-06 19:22 | 49.53131 | 3.81650 | 27919 ft | 313 kts | 293° |
| 2026-05-06 19:22 | 49.54005 | 3.78574 | 27920 ft | 313 kts | 293° |
| 2026-05-06 19:23 | 49.54876 | 3.75502 | 27922 ft | 313 kts | 293° |
| 2026-05-06 19:23 | 49.55749 | 3.72422 | 27920 ft | 313 kts | 293° |
| 2026-05-06 19:23 | 49.56620 | 3.69344 | 27920 ft | 313 kts | 293° |
| 2026-05-06 19:23 | 49.57490 | 3.66264 | 27921 ft | 313 kts | 293° |
| 2026-05-06 19:24 | 49.58358 | 3.63192 | 27922 ft | 313 kts | 293° |
| 2026-05-06 19:24 | 49.59216 | 3.60146 | 27920 ft | 313 kts | 293° |
| 2026-05-06 19:24 | 49.60083 | 3.57065 | 27925 ft | 313 kts | 293° |
| 2026-05-06 19:24 | 49.60950 | 3.53985 | 27923 ft | 314 kts | 293° |
| 2026-05-06 19:25 | 49.61817 | 3.50896 | 27927 ft | 314 kts | 293° |
| 2026-05-06 19:25 | 49.62684 | 3.47803 | 27927 ft | 314 kts | 293° |
| 2026-05-06 19:25 | 49.63552 | 3.44703 | 27927 ft | 315 kts | 293° |
| 2026-05-06 19:25 | 49.64421 | 3.41601 | 27928 ft | 315 kts | 293° |
| 2026-05-06 19:26 | 49.65286 | 3.38502 | 27929 ft | 315 kts | 293° |
| 2026-05-06 19:26 | 49.66155 | 3.35388 | 27926 ft | 315 kts | 293° |
| 2026-05-06 19:26 | 49.67021 | 3.32283 | 27926 ft | 315 kts | 293° |
| 2026-05-06 19:26 | 49.67891 | 3.29180 | 27927 ft | 315 kts | 293° |
| 2026-05-06 19:27 | 49.68755 | 3.26062 | 27928 ft | 315 kts | 293° |
| 2026-05-06 19:27 | 49.69611 | 3.22959 | 27929 ft | 315 kts | 293° |
| 2026-05-06 19:27 | 49.70472 | 3.19849 | 27930 ft | 315 kts | 293° |
| 2026-05-06 19:27 | 49.71334 | 3.16737 | 27929 ft | 315 kts | 293° |
| 2026-05-06 19:28 | 49.72197 | 3.13612 | 27933 ft | 316 kts | 293° |
| 2026-05-06 19:28 | 49.73059 | 3.10492 | 27929 ft | 316 kts | 293° |
| 2026-05-06 19:28 | 49.73921 | 3.07364 | 27929 ft | 316 kts | 293° |
| 2026-05-06 19:28 | 49.74784 | 3.04228 | 27933 ft | 317 kts | 293° |
| 2026-05-06 19:29 | 49.75645 | 3.01097 | 27930 ft | 317 kts | 293° |
| 2026-05-06 19:29 | 49.76497 | 2.97997 | 27930 ft | 317 kts | 293° |
| 2026-05-06 19:29 | 49.77356 | 2.94863 | 27928 ft | 317 kts | 293° |
| 2026-05-06 19:29 | 49.78227 | 2.91685 | 27929 ft | 317 kts | 293° |
| 2026-05-06 19:30 | 49.79085 | 2.88543 | 27938 ft | 317 kts | 293° |
| 2026-05-06 19:30 | 49.79932 | 2.85443 | 27938 ft | 317 kts | 293° |
| 2026-05-06 19:30 | 49.80789 | 2.82300 | 27941 ft | 317 kts | 293° |
| 2026-05-06 19:30 | 49.81648 | 2.79159 | 27937 ft | 317 kts | 294° |
| 2026-05-06 19:31 | 49.82736 | 2.76183 | 27954 ft | 317 kts | 305° |
| 2026-05-06 19:31 | 49.84168 | 2.73574 | 27956 ft | 318 kts | 316° |
| 2026-05-06 19:31 | 49.87525 | 2.69113 | 27953 ft | 318 kts | 320° |
| 2026-05-06 19:32 | 49.89201 | 2.66882 | 27956 ft | 317 kts | 320° |
| 2026-05-06 19:32 | 49.90881 | 2.64663 | 27954 ft | 317 kts | 320° |
| 2026-05-06 19:32 | 49.92566 | 2.62444 | 27942 ft | 317 kts | 320° |
| 2026-05-06 19:32 | 49.94244 | 2.60225 | 27940 ft | 317 kts | 320° |
| 2026-05-06 19:33 | 49.95922 | 2.58001 | 27939 ft | 317 kts | 320° |
| 2026-05-06 19:33 | 49.97600 | 2.55777 | 27937 ft | 317 kts | 320° |
| 2026-05-06 19:33 | 49.99282 | 2.53547 | 27937 ft | 317 kts | 320° |
| 2026-05-06 19:33 | 50.00959 | 2.51318 | 27936 ft | 317 kts | 320° |
| 2026-05-06 19:34 | 50.02614 | 2.49119 | 27933 ft | 317 kts | 320° |
| 2026-05-06 19:34 | 50.04289 | 2.46892 | 27934 ft | 317 kts | 320° |
| 2026-05-06 19:34 | 50.05963 | 2.44661 | 27935 ft | 317 kts | 320° |
| 2026-05-06 19:34 | 50.07636 | 2.42430 | 27938 ft | 317 kts | 320° |
| 2026-05-06 19:35 | 50.09313 | 2.40195 | 27938 ft | 317 kts | 320° |
| 2026-05-06 19:35 | 50.10985 | 2.37961 | 27940 ft | 317 kts | 320° |
| 2026-05-06 19:35 | 50.12653 | 2.35731 | 27946 ft | 317 kts | 320° |
| 2026-05-06 19:35 | 50.14327 | 2.33491 | 27948 ft | 317 kts | 320° |
| 2026-05-06 19:36 | 50.15997 | 2.31255 | 27951 ft | 317 kts | 320° |
| 2026-05-06 19:36 | 50.17666 | 2.29017 | 27955 ft | 317 kts | 318° |
| 2026-05-06 19:36 | 50.19336 | 2.26780 | 27956 ft | 316 kts | 319° |
| 2026-05-06 19:36 | 50.21001 | 2.24541 | 27957 ft | 316 kts | 319° |
| 2026-05-06 19:37 | 50.22662 | 2.22306 | 27956 ft | 315 kts | 319° |
| 2026-05-06 19:37 | 50.24326 | 2.20066 | 27964 ft | 315 kts | 319° |
| 2026-05-06 19:37 | 50.25989 | 2.17828 | 27962 ft | 315 kts | 319° |
| 2026-05-06 19:37 | 50.27087 | 2.16347 | 27961 ft | 315 kts | 319° |
| 2026-05-06 19:38 | 50.29307 | 2.13349 | 27964 ft | 315 kts | 319° |
| 2026-05-06 19:38 | 50.30969 | 2.11106 | 27962 ft | 315 kts | 319° |
| 2026-05-06 19:38 | 50.32624 | 2.08869 | 27965 ft | 315 kts | 319° |
| 2026-05-06 19:38 | 50.34281 | 2.06624 | 27966 ft | 315 kts | 318° |
| 2026-05-06 19:39 | 50.35939 | 2.04379 | 27961 ft | 315 kts | 319° |
| 2026-05-06 19:39 | 50.37578 | 2.02155 | 27952 ft | 315 kts | 318° |
| 2026-05-06 19:39 | 50.39252 | 1.99885 | 27627 ft | 320 kts | 319° |
| 2026-05-06 19:39 | 50.40941 | 1.97594 | 27213 ft | 321 kts | 318° |
| 2026-05-06 19:40 | 50.42632 | 1.95292 | 26785 ft | 322 kts | 318° |
| 2026-05-06 19:40 | 50.44325 | 1.92986 | 26357 ft | 323 kts | 318° |
| 2026-05-06 19:40 | 50.46025 | 1.90670 | 25929 ft | 323 kts | 318° |
| 2026-05-06 19:40 | 50.47723 | 1.88353 | 25502 ft | 324 kts | 318° |
| 2026-05-06 19:41 | 50.49429 | 1.86024 | 25085 ft | 325 kts | 318° |
| 2026-05-06 19:41 | 50.51130 | 1.83700 | 24683 ft | 324 kts | 318° |
| 2026-05-06 19:41 | 50.52824 | 1.81381 | 24273 ft | 324 kts | 317° |
| 2026-05-06 19:41 | 50.54527 | 1.79049 | 23846 ft | 325 kts | 318° |
| 2026-05-06 19:42 | 50.56239 | 1.76702 | 23387 ft | 327 kts | 318° |
| 2026-05-06 19:42 | 50.57948 | 1.74358 | 22940 ft | 326 kts | 317° |
| 2026-05-06 19:42 | 50.59660 | 1.72008 | 22505 ft | 327 kts | 318° |
| 2026-05-06 19:42 | 50.61376 | 1.69650 | 22073 ft | 327 kts | 318° |
| 2026-05-06 19:43 | 50.63089 | 1.67294 | 21635 ft | 327 kts | 318° |
| 2026-05-06 19:43 | 50.64799 | 1.64936 | 21204 ft | 326 kts | 318° |
| 2026-05-06 19:43 | 50.66510 | 1.62576 | 20772 ft | 326 kts | 318° |
| 2026-05-06 19:43 | 50.68212 | 1.60225 | 20342 ft | 326 kts | 318° |
| 2026-05-06 19:44 | 50.69915 | 1.57865 | 19911 ft | 325 kts | 318° |
| 2026-05-06 19:44 | 50.71605 | 1.55519 | 19480 ft | 323 kts | 318° |
| 2026-05-06 19:44 | 50.73274 | 1.53208 | 19065 ft | 322 kts | 318° |
| 2026-05-06 19:44 | 50.74955 | 1.50876 | 18642 ft | 321 kts | 318° |
| 2026-05-06 19:45 | 50.76629 | 1.48548 | 18211 ft | 320 kts | 318° |
| 2026-05-06 19:45 | 50.78283 | 1.46217 | 17766 ft | 317 kts | 317° |
| 2026-05-06 19:45 | 50.81194 | 1.42078 | 17029 ft | 313 kts | 318° |
| 2026-05-06 19:46 | 50.82828 | 1.39818 | 16619 ft | 311 kts | 318° |
| 2026-05-06 19:46 | 50.84418 | 1.37564 | 16223 ft | 310 kts | 318° |
| 2026-05-06 19:46 | 50.86108 | 1.35390 | 15815 ft | 309 kts | 327° |
| 2026-05-06 19:46 | 50.88007 | 1.33912 | 15489 ft | 308 kts | 339° |
| 2026-05-06 19:47 | 50.90093 | 1.33093 | 15027 ft | 311 kts | 352° |
| 2026-05-06 19:47 | 50.92251 | 1.33021 | 14604 ft | 310 kts | 2° |
| 2026-05-06 19:47 | 50.94402 | 1.33166 | 14188 ft | 309 kts | 1° |
| 2026-05-06 19:47 | 50.96541 | 1.33214 | 13844 ft | 305 kts | 356° |
| 2026-05-06 19:48 | 50.98642 | 1.32815 | 13424 ft | 303 kts | 351° |
| 2026-05-06 19:48 | 51.00715 | 1.32293 | 13016 ft | 302 kts | 350° |
| 2026-05-06 19:48 | 51.02781 | 1.31803 | 12753 ft | 297 kts | 352° |
| 2026-05-06 19:48 | 51.04831 | 1.31366 | 12356 ft | 297 kts | 351° |
| 2026-05-06 19:49 | 51.06880 | 1.30870 | 11943 ft | 297 kts | 351° |
| 2026-05-06 19:49 | 51.08927 | 1.30359 | 11532 ft | 297 kts | 351° |
| 2026-05-06 19:49 | 51.10960 | 1.29870 | 11121 ft | 296 kts | 351° |
| 2026-05-06 19:49 | 51.12996 | 1.29383 | 10708 ft | 295 kts | 351° |
| 2026-05-06 19:50 | 51.15024 | 1.28891 | 10299 ft | 295 kts | 351° |
| 2026-05-06 19:50 | 51.17044 | 1.28429 | 10010 ft | 290 kts | 354° |
| 2026-05-06 19:50 | 51.19018 | 1.28141 | 9994 ft | 279 kts | 349° |
| 2026-05-06 19:50 | 51.20763 | 1.26941 | 9981 ft | 273 kts | 324° |
| 2026-05-06 19:51 | 51.22214 | 1.25013 | 9994 ft | 270 kts | 321° |
| 2026-05-06 19:51 | 51.23691 | 1.23183 | 9993 ft | 268 kts | 323° |
| 2026-05-06 19:51 | 51.25146 | 1.21331 | 9990 ft | 267 kts | 321° |
| 2026-05-06 19:51 | 51.26577 | 1.19443 | 9991 ft | 267 kts | 321° |
| 2026-05-06 19:52 | 51.27998 | 1.17582 | 9989 ft | 267 kts | 321° |
| 2026-05-06 19:52 | 51.29438 | 1.15716 | 9988 ft | 267 kts | 321° |
| 2026-05-06 19:52 | 51.30889 | 1.13831 | 9943 ft | 270 kts | 321° |
| 2026-05-06 19:52 | 51.32368 | 1.11920 | 9641 ft | 276 kts | 321° |
| 2026-05-06 19:53 | 51.33873 | 1.09969 | 9275 ft | 280 kts | 321° |
| 2026-05-06 19:53 | 51.35386 | 1.07991 | 8904 ft | 282 kts | 321° |
| 2026-05-06 19:53 | 51.36898 | 1.05985 | 8533 ft | 282 kts | 321° |
| 2026-05-06 19:53 | 51.38420 | 1.03999 | 8159 ft | 282 kts | 321° |
| 2026-05-06 19:54 | 51.39935 | 1.02020 | 7789 ft | 281 kts | 321° |
| 2026-05-06 19:54 | 51.41447 | 1.00034 | 7417 ft | 280 kts | 321° |
| 2026-05-06 19:54 | 51.42953 | 0.98059 | 7047 ft | 280 kts | 322° |
| 2026-05-06 19:54 | 51.44477 | 0.96122 | 6678 ft | 279 kts | 323° |
| 2026-05-06 19:55 | 51.45907 | 0.94032 | 6293 ft | 280 kts | 311° |
| 2026-05-06 19:55 | 51.46958 | 0.91396 | 6011 ft | 279 kts | 297° |
| 2026-05-06 19:55 | 51.47576 | 0.88514 | 6006 ft | 270 kts | 284° |
| 2026-05-06 19:55 | 51.47766 | 0.85533 | 6009 ft | 267 kts | 274° |
| 2026-05-06 19:56 | 51.47857 | 0.82574 | 6009 ft | 265 kts | 275° |
| 2026-05-06 19:56 | 51.48011 | 0.79636 | 6011 ft | 263 kts | 277° |
| 2026-05-06 19:56 | 51.48215 | 0.76788 | 6011 ft | 263 kts | 278° |
| 2026-05-06 19:56 | 51.48406 | 0.73887 | 6012 ft | 263 kts | 275° |
| 2026-05-06 19:57 | 51.48471 | 0.71007 | 6014 ft | 260 kts | 274° |
| 2026-05-06 19:57 | 51.48557 | 0.68124 | 6011 ft | 258 kts | 274° |
| 2026-05-06 19:57 | 51.48648 | 0.65261 | 6010 ft | 257 kts | 274° |
| 2026-05-06 19:57 | 51.48740 | 0.62401 | 6012 ft | 256 kts | 275° |
| 2026-05-06 19:58 | 51.48834 | 0.59543 | 6011 ft | 256 kts | 274° |
| 2026-05-06 19:58 | 51.48928 | 0.56678 | 6008 ft | 256 kts | 275° |
| 2026-05-06 19:58 | 51.49020 | 0.53849 | 6007 ft | 250 kts | 275° |
| 2026-05-06 19:58 | 51.49100 | 0.51123 | 6006 ft | 241 kts | 274° |
| 2026-05-06 19:59 | 51.49177 | 0.48463 | 6006 ft | 236 kts | 274° |
| 2026-05-06 19:59 | 51.49252 | 0.45846 | 6006 ft | 233 kts | 273° |
| 2026-05-06 19:59 | 51.49340 | 0.43256 | 6004 ft | 232 kts | 274° |
| 2026-05-06 19:59 | 51.49422 | 0.40669 | 6002 ft | 231 kts | 273° |
| 2026-05-06 20:00 | 51.49501 | 0.38087 | 6005 ft | 231 kts | 273° |
| 2026-05-06 20:00 | 51.49579 | 0.35521 | 6005 ft | 231 kts | 274° |
| 2026-05-06 20:00 | 51.49663 | 0.32944 | 5997 ft | 231 kts | 273° |
| 2026-05-06 20:00 | 51.49722 | 0.30517 | 5484 ft | 205 kts | 274° |
| 2026-05-06 20:01 | 51.49802 | 0.28375 | 5005 ft | 181 kts | 275° |
| 2026-05-06 20:01 | 51.49864 | 0.26423 | 4560 ft | 170 kts | 274° |
| 2026-05-06 20:01 | 51.49920 | 0.24590 | 4138 ft | 160 kts | 277° |
| 2026-05-06 20:01 | 51.49983 | 0.22834 | 3742 ft | 156 kts | 277° |
| 2026-05-06 20:02 | 51.50034 | 0.21101 | 3357 ft | 155 kts | 276° |
| 2026-05-06 20:02 | 51.50087 | 0.19370 | 2964 ft | 156 kts | 278° |
| 2026-05-06 20:02 | 51.50140 | 0.17706 | 2587 ft | 140 kts | 277° |
| 2026-05-06 20:02 | 51.50187 | 0.16206 | 2239 ft | 131 kts | 278° |
| 2026-05-06 20:03 | 51.50233 | 0.14786 | 1929 ft | 124 kts | 277° |
| 2026-05-06 20:03 | 51.50277 | 0.13417 | 1617 ft | 122 kts | 279° |
| 2026-05-06 20:03 | 51.50324 | 0.12049 | 1246 ft | 124 kts | 278° |
| 2026-05-06 20:03 | 51.50336 | 0.10733 | 795 ft | 106 kts | 276° |
| 2026-05-06 20:04 | 51.50368 | 0.09653 | 479 ft | 91 kts | 280° |
| 2026-05-06 20:04 | 51.50404 | 0.08692 | 305 ft | 82 kts | 280° |
| 2026-05-06 20:04 | 51.50442 | 0.07774 | 213 ft | 83 kts | 279° |
| 2026-05-06 20:04 | 51.50481 | 0.06834 | 100 ft | 86 kts | 283° |
| 2026-05-06 20:05 | 51.50508 | 0.05895 | 18 ft | 78 kts | 278° |
| 2026-05-06 20:05 | 51.50543 | 0.05292 | 21 ft | 18 kts | 260° |
| 2026-05-06 20:05 | 51.50543 | 0.05281 | 21 ft | 0 kts | 246° |